Terminal Aerodrome Forecast
Issued by NWS

Home | Current Version | Previous Version | Text Only | Print | Product List | Glossary On
Versions: 1 2 3 4 5 6 7 8 9 10 11 12 13 14 15 16 17
000
FTUS45 KCYS 181700
TAFLAR
TAF
KLAR 181726Z 1818/1918 23023G32KT P6SM SCT250
     FM190000 22013G22KT P6SM BKN250
     FM190500 22006KT P6SM BKN080 OVC200=

USA.gov is the U.S. government's official web portal to all federal, state and local government web resources and services.